Whitt, TX (76490)

5:56 PM CDT on September 20, 2014 (GMT -0500)
Western II, Mineral Wells | Change Station
CLOSE
Current Station
Personal Weather Station
Location: Mineral Wells, TX
Elevation: 1040 ft
Nearby Weather Stations

Elev 1040 ft 32.82 °N, 98.10 °W | Updated 50 seconds ago

Clear
Clear
88.0 °F
Feels Like 93 °F
N
2.2
Wind Variable Wind from East

Today
High -- | Low -- °F
--% Chance of Precip.
Yesterday
High -- | Low -- °F
Precip. -- in
7:18 AM 7:31 PM
Waning Crescent, 10% visible
Pressure 29.89 in
Visibility 10.0 miles
Clouds Clear
Heat Index 93 °F
Dew Point 70 °F
Humidity 55%
Rainfall 0.00 in
Snow Depth Not available.
UV 3 out of 12
Pollen 10.70 out of 12
Ozone Good
PM2.5 Good
Flu Activity Not available.
METAR KMWL 202153Z AUTO 10011KT 10SM CLR 32/18 A2993 RMK AO2 SLP121 T03170183

More Conditions Fewer Conditions

Pressure 29.89 in
Visibility 10.0 miles
Clouds Clear
Heat Index 93 °F
Dew Point 70 °F
Humidity 55%
Rainfall 0.00 in
Snow Depth Not available.
UV 3 out of 12
Pollen 10.70 out of 12
Ozone Good
PM2.5 Good
Flu Activity Not available.
METAR KMWL 202153Z AUTO 10011KT 10SM CLR 32/18 A2993 RMK AO2 SLP121 T03170183

More Conditions Fewer Conditions

Nowcast | as of 3:01 PM CDT on September 20, 2014

Scattered showers are ongoing across much of North Texas this afternoon. This activity is moving slowly to the northwest at 5 to 10 mph. Additional showers and isolated storms will be possible through the rest of the afternoon and early evening...primarily along and west of the Interstate 35 corridor. Skies will remain mostly cloudy west of Interstate 35 and partly cloudy to the east through the afternoon. High temperatures will be in the upper 80s and low 90s in areas unaffected by rainfall. Winds will be southeast at 5 to 10 mph.

×

10-Day Weather Forecast

Almanac

Astronomy

Sep. 20, 2014 Rise Set
Actual Time 7:18 AM CDT 7:31 PM CDT
Civil Twilight 6:54 AM CDT 7:56 PM CDT
Nautical Twilight 6:25 AM CDT 8:24 PM CDT
Astronomical Twilight 5:56 AM CDT 8:54 PM CDT
Moon 4:07 AM CDT 5:28 PM CDT
Length of Visible Light 13h 01m
Length of Day
12h 12m
Tomorrow will be 2m 1s shorter.
Waning Crescent, 10% of the Moon is Illuminated
Today
Waning Crescent
Sep 24
New
Oct 1
First Quarter
Oct 8
Full
Oct 15
Last Quarter

Today's Extremes

State Highs State Lows

Community

WunderPhotos

Upload Photos

1,754,970 photos uploaded!

WunderBlogs® & News

Nearby

Air Quality

  Air Quality AQ Index Pollutant
Yesterday Good
PM2.5
Yesterday Good
OZONE
Current Good
OZONE
Current Good
PM2.5
Saturday Good
OZONE
Saturday Good
PM10
Sunday Moderate
OZONE
Sunday Good
PM10
Monday Moderate
OZONE
Monday Good
PM10
Tuesday Moderate
OZONE
Tuesday Good
PM10

Snow Depth

Station Depth Elevation
No new snow has been reported.

Earthquake Activity

City Distance Mag. Time & Date
No recent earthquake activity has been reported nearby.
Minimum magnitude displayed is 2.5.

Coastal Water Temperatures

Place Temperature
No Stations Reporting

Nearby Weather Stations